Terminal Aerodrome Forecast
Issued by NWS

Home | Current Version | Previous Version | Text Only | Print | Product List | Glossary On
Versions: 1 2 3 4 5 6 7 8 9 10 11 12 13 14 15 16 17 18 19
000
FTUS42 KTBW 282339
TAFPIE
TAF
KPIE 282339Z 2900/2924 07011KT P6SM FEW060 SCT080
     FM290600 08007KT P6SM FEW250
     FM292000 06008KT P6SM VCTS FEW025CB SCT250=

USA.gov is the U.S. government's official web portal to all federal, state and local government web resources and services.